sensor_id;sensor_type;location;lat;lon;timestamp;P1;durP1;ratioP1;P2;durP2;ratioP2
7181;SDS011;3632;42.724;23.298;2022-08-19T00:01:54;8.53;;;4.37;;
7181;SDS011;3632;42.724;23.298;2022-08-19T00:04:23;5.53;;;4.30;;
7181;SDS011;3632;42.724;23.298;2022-08-19T00:06:52;5.40;;;4.90;;
7181;SDS011;3632;42.724;23.298;2022-08-19T00:09:20;7.63;;;6.93;;
7181;SDS011;3632;42.724;23.298;2022-08-19T00:11:51;6.73;;;5.37;;
7181;SDS011;3632;42.724;23.298;2022-08-19T00:14:18;7.60;;;5.10;;
7181;SDS011;3632;42.724;23.298;2022-08-19T00:16:47;5.00;;;4.53;;
7181;SDS011;3632;42.724;23.298;2022-08-19T00:19:16;7.23;;;4.40;;
7181;SDS011;3632;42.724;23.298;2022-08-19T00:21:43;6.57;;;4.80;;
7181;SDS011;3632;42.724;23.298;2022-08-19T00:24:10;6.10;;;4.93;;
7181;SDS011;3632;42.724;23.298;2022-08-19T00:26:39;7.33;;;5.20;;
7181;SDS011;3632;42.724;23.298;2022-08-19T00:29:09;7.60;;;5.00;;
7181;SDS011;3632;42.724;23.298;2022-08-19T00:31:38;7.13;;;4.87;;
7181;SDS011;3632;42.724;23.298;2022-08-19T00:34:05;6.90;;;5.57;;
7181;SDS011;3632;42.724;23.298;2022-08-19T00:36:32;6.90;;;5.27;;
7181;SDS011;3632;42.724;23.298;2022-08-19T00:38:59;7.07;;;5.40;;
7181;SDS011;3632;42.724;23.298;2022-08-19T00:41:26;7.43;;;5.40;;
7181;SDS011;3632;42.724;23.298;2022-08-19T00:43:57;6.83;;;5.20;;
7181;SDS011;3632;42.724;23.298;2022-08-19T00:46:27;7.63;;;4.93;;
7181;SDS011;3632;42.724;23.298;2022-08-19T00:48:54;9.27;;;5.33;;
7181;SDS011;3632;42.724;23.298;2022-08-19T00:51:22;7.80;;;5.40;;
7181;SDS011;3632;42.724;23.298;2022-08-19T00:53:51;6.30;;;5.37;;
7181;SDS011;3632;42.724;23.298;2022-08-19T00:56:19;6.67;;;5.67;;
7181;SDS011;3632;42.724;23.298;2022-08-19T00:58:46;6.87;;;5.67;;
7181;SDS011;3632;42.724;23.298;2022-08-19T01:01:13;6.83;;;5.03;;
7181;SDS011;3632;42.724;23.298;2022-08-19T01:03:41;7.20;;;5.47;;
7181;SDS011;3632;42.724;23.298;2022-08-19T01:06:08;8.77;;;5.47;;
7181;SDS011;3632;42.724;23.298;2022-08-19T01:08:35;6.50;;;5.27;;
7181;SDS011;3632;42.724;23.298;2022-08-19T01:11:02;7.40;;;5.20;;
7181;SDS011;3632;42.724;23.298;2022-08-19T01:13:30;7.23;;;5.57;;
7181;SDS011;3632;42.724;23.298;2022-08-19T01:16:02;6.43;;;5.43;;
7181;SDS011;3632;42.724;23.298;2022-08-19T01:18:31;6.03;;;5.43;;
7181;SDS011;3632;42.724;23.298;2022-08-19T01:21:05;6.20;;;5.50;;
7181;SDS011;3632;42.724;23.298;2022-08-19T01:23:38;6.80;;;5.20;;
7181;SDS011;3632;42.724;23.298;2022-08-19T01:26:12;6.33;;;5.53;;
7181;SDS011;3632;42.724;23.298;2022-08-19T01:28:40;7.27;;;5.70;;
7181;SDS011;3632;42.724;23.298;2022-08-19T01:31:08;6.23;;;5.23;;
7181;SDS011;3632;42.724;23.298;2022-08-19T01:33:37;6.87;;;5.53;;
7181;SDS011;3632;42.724;23.298;2022-08-19T01:36:05;6.13;;;5.30;;
7181;SDS011;3632;42.724;23.298;2022-08-19T01:38:35;5.60;;;5.10;;
7181;SDS011;3632;42.724;23.298;2022-08-19T01:41:04;6.77;;;5.57;;
7181;SDS011;3632;42.724;23.298;2022-08-19T01:43:32;6.70;;;5.77;;
7181;SDS011;3632;42.724;23.298;2022-08-19T01:45:59;6.07;;;4.90;;
7181;SDS011;3632;42.724;23.298;2022-08-19T01:48:26;7.50;;;6.00;;
7181;SDS011;3632;42.724;23.298;2022-08-19T01:50:55;6.70;;;6.00;;
7181;SDS011;3632;42.724;23.298;2022-08-19T01:53:22;8.07;;;6.00;;
7181;SDS011;3632;42.724;23.298;2022-08-19T01:55:48;6.47;;;5.80;;
7181;SDS011;3632;42.724;23.298;2022-08-19T01:58:18;6.10;;;5.60;;
7181;SDS011;3632;42.724;23.298;2022-08-19T02:00:47;6.90;;;5.83;;
7181;SDS011;3632;42.724;23.298;2022-08-19T02:03:15;6.70;;;6.00;;
7181;SDS011;3632;42.724;23.298;2022-08-19T02:05:42;8.43;;;5.93;;
7181;SDS011;3632;42.724;23.298;2022-08-19T02:08:10;7.10;;;6.50;;
7181;SDS011;3632;42.724;23.298;2022-08-19T02:10:38;6.80;;;6.00;;
7181;SDS011;3632;42.724;23.298;2022-08-19T02:13:06;10.07;;;6.13;;
7181;SDS011;3632;42.724;23.298;2022-08-19T02:15:34;7.03;;;6.40;;
7181;SDS011;3632;42.724;23.298;2022-08-19T02:18:01;9.90;;;6.60;;
7181;SDS011;3632;42.724;23.298;2022-08-19T02:20:28;6.77;;;6.17;;
7181;SDS011;3632;42.724;23.298;2022-08-19T02:22:55;7.17;;;6.23;;
7181;SDS011;3632;42.724;23.298;2022-08-19T02:25:22;7.23;;;6.53;;
7181;SDS011;3632;42.724;23.298;2022-08-19T02:27:48;8.00;;;7.20;;
7181;SDS011;3632;42.724;23.298;2022-08-19T02:30:16;8.43;;;6.27;;
7181;SDS011;3632;42.724;23.298;2022-08-19T02:32:45;7.03;;;6.33;;
7181;SDS011;3632;42.724;23.298;2022-08-19T02:35:12;7.77;;;7.00;;
7181;SDS011;3632;42.724;23.298;2022-08-19T02:37:40;9.17;;;6.80;;
7181;SDS011;3632;42.724;23.298;2022-08-19T02:40:25;8.93;;;6.27;;
7181;SDS011;3632;42.724;23.298;2022-08-19T02:42:52;8.37;;;7.50;;
7181;SDS011;3632;42.724;23.298;2022-08-19T02:45:18;8.80;;;8.00;;
7181;SDS011;3632;42.724;23.298;2022-08-19T02:47:47;9.83;;;8.63;;
7181;SDS011;3632;42.724;23.298;2022-08-19T02:50:14;9.57;;;8.57;;
7181;SDS011;3632;42.724;23.298;2022-08-19T02:52:40;7.80;;;7.03;;
7181;SDS011;3632;42.724;23.298;2022-08-19T02:55:07;10.97;;;8.40;;
7181;SDS011;3632;42.724;23.298;2022-08-19T02:57:35;8.37;;;7.33;;
7181;SDS011;3632;42.724;23.298;2022-08-19T03:00:04;7.30;;;6.60;;
7181;SDS011;3632;42.724;23.298;2022-08-19T03:02:32;9.47;;;8.50;;
7181;SDS011;3632;42.724;23.298;2022-08-19T03:05:00;15.70;;;14.20;;
7181;SDS011;3632;42.724;23.298;2022-08-19T03:07:28;16.20;;;14.60;;
7181;SDS011;3632;42.724;23.298;2022-08-19T03:09:55;16.97;;;15.20;;
7181;SDS011;3632;42.724;23.298;2022-08-19T03:12:22;9.33;;;7.03;;
7181;SDS011;3632;42.724;23.298;2022-08-19T03:14:49;7.03;;;6.33;;
7181;SDS011;3632;42.724;23.298;2022-08-19T03:17:16;7.50;;;6.67;;
7181;SDS011;3632;42.724;23.298;2022-08-19T03:19:42;9.80;;;6.83;;
7181;SDS011;3632;42.724;23.298;2022-08-19T03:22:10;7.17;;;6.47;;
7181;SDS011;3632;42.724;23.298;2022-08-19T03:24:37;9.83;;;7.50;;
7181;SDS011;3632;42.724;23.298;2022-08-19T03:27:05;9.27;;;6.87;;
7181;SDS011;3632;42.724;23.298;2022-08-19T03:29:32;10.13;;;7.70;;
7181;SDS011;3632;42.724;23.298;2022-08-19T03:32:05;10.10;;;7.03;;
7181;SDS011;3632;42.724;23.298;2022-08-19T03:34:33;7.37;;;6.47;;
7181;SDS011;3632;42.724;23.298;2022-08-19T03:37:03;8.33;;;6.73;;
7181;SDS011;3632;42.724;23.298;2022-08-19T03:39:33;7.07;;;6.30;;
7181;SDS011;3632;42.724;23.298;2022-08-19T03:42:00;7.40;;;6.80;;
7181;SDS011;3632;42.724;23.298;2022-08-19T03:44:27;7.03;;;6.43;;
7181;SDS011;3632;42.724;23.298;2022-08-19T03:46:58;9.23;;;6.83;;
7181;SDS011;3632;42.724;23.298;2022-08-19T03:49:26;7.17;;;6.47;;
7181;SDS011;3632;42.724;23.298;2022-08-19T03:51:54;8.80;;;6.60;;
7181;SDS011;3632;42.724;23.298;2022-08-19T03:54:23;8.07;;;6.87;;
7181;SDS011;3632;42.724;23.298;2022-08-19T03:56:53;11.37;;;7.70;;
7181;SDS011;3632;42.724;23.298;2022-08-19T03:59:23;10.77;;;7.20;;
7181;SDS011;3632;42.724;23.298;2022-08-19T04:01:52;12.20;;;7.70;;
7181;SDS011;3632;42.724;23.298;2022-08-19T04:04:19;9.80;;;7.60;;
7181;SDS011;3632;42.724;23.298;2022-08-19T04:06:46;8.10;;;7.40;;
7181;SDS011;3632;42.724;23.298;2022-08-19T04:09:13;10.50;;;7.57;;
7181;SDS011;3632;42.724;23.298;2022-08-19T04:11:42;9.13;;;7.90;;
7181;SDS011;3632;42.724;23.298;2022-08-19T04:14:12;11.00;;;7.43;;
7181;SDS011;3632;42.724;23.298;2022-08-19T04:16:39;14.67;;;12.30;;
7181;SDS011;3632;42.724;23.298;2022-08-19T04:19:08;9.93;;;8.90;;
7181;SDS011;3632;42.724;23.298;2022-08-19T04:21:35;8.97;;;8.07;;
7181;SDS011;3632;42.724;23.298;2022-08-19T04:24:03;8.17;;;7.37;;
7181;SDS011;3632;42.724;23.298;2022-08-19T04:26:30;10.20;;;7.80;;
7181;SDS011;3632;42.724;23.298;2022-08-19T04:28:59;7.73;;;7.03;;
7181;SDS011;3632;42.724;23.298;2022-08-19T04:31:29;8.10;;;7.30;;
7181;SDS011;3632;42.724;23.298;2022-08-19T04:34:00;7.93;;;7.13;;
7181;SDS011;3632;42.724;23.298;2022-08-19T04:36:28;7.00;;;6.40;;
7181;SDS011;3632;42.724;23.298;2022-08-19T04:38:57;7.60;;;6.80;;
7181;SDS011;3632;42.724;23.298;2022-08-19T04:41:26;8.20;;;7.10;;
7181;SDS011;3632;42.724;23.298;2022-08-19T04:44:10;7.70;;;6.80;;
7181;SDS011;3632;42.724;23.298;2022-08-19T04:46:38;7.93;;;6.60;;
7181;SDS011;3632;42.724;23.298;2022-08-19T04:49:06;7.50;;;6.80;;
7181;SDS011;3632;42.724;23.298;2022-08-19T04:51:34;7.63;;;6.83;;
7181;SDS011;3632;42.724;23.298;2022-08-19T04:54:02;7.33;;;6.60;;
7181;SDS011;3632;42.724;23.298;2022-08-19T04:56:30;7.63;;;6.93;;
7181;SDS011;3632;42.724;23.298;2022-08-19T04:58:57;8.37;;;7.43;;
7181;SDS011;3632;42.724;23.298;2022-08-19T05:01:28;8.73;;;7.13;;
7181;SDS011;3632;42.724;23.298;2022-08-19T05:03:58;8.13;;;7.20;;
7181;SDS011;3632;42.724;23.298;2022-08-19T05:06:27;8.83;;;7.13;;
7181;SDS011;3632;42.724;23.298;2022-08-19T05:08:57;8.87;;;7.60;;
7181;SDS011;3632;42.724;23.298;2022-08-19T05:11:25;8.20;;;7.37;;
7181;SDS011;3632;42.724;23.298;2022-08-19T05:13:54;8.13;;;7.43;;
7181;SDS011;3632;42.724;23.298;2022-08-19T05:16:21;8.80;;;7.73;;
7181;SDS011;3632;42.724;23.298;2022-08-19T05:18:50;9.53;;;7.20;;
7181;SDS011;3632;42.724;23.298;2022-08-19T05:21:36;8.20;;;7.40;;
7181;SDS011;3632;42.724;23.298;2022-08-19T05:24:21;10.67;;;7.67;;
7181;SDS011;3632;42.724;23.298;2022-08-19T05:26:49;11.53;;;8.23;;
7181;SDS011;3632;42.724;23.298;2022-08-19T05:29:18;8.67;;;7.90;;
7181;SDS011;3632;42.724;23.298;2022-08-19T05:31:46;8.93;;;8.00;;
7181;SDS011;3632;42.724;23.298;2022-08-19T05:34:14;11.27;;;8.87;;
7181;SDS011;3632;42.724;23.298;2022-08-19T05:36:43;10.00;;;8.90;;
7181;SDS011;3632;42.724;23.298;2022-08-19T05:39:12;11.60;;;9.00;;
7181;SDS011;3632;42.724;23.298;2022-08-19T05:41:41;11.03;;;8.90;;
7181;SDS011;3632;42.724;23.298;2022-08-19T05:44:08;13.33;;;9.03;;
7181;SDS011;3632;42.724;23.298;2022-08-19T05:46:35;9.67;;;8.73;;
7181;SDS011;3632;42.724;23.298;2022-08-19T05:49:03;11.43;;;8.73;;
7181;SDS011;3632;42.724;23.298;2022-08-19T05:51:31;11.07;;;9.47;;
7181;SDS011;3632;42.724;23.298;2022-08-19T05:54:00;12.20;;;10.50;;
7181;SDS011;3632;42.724;23.298;2022-08-19T05:56:27;12.43;;;9.97;;
7181;SDS011;3632;42.724;23.298;2022-08-19T05:58:55;10.80;;;8.50;;
7181;SDS011;3632;42.724;23.298;2022-08-19T06:01:23;10.20;;;9.17;;
7181;SDS011;3632;42.724;23.298;2022-08-19T06:03:51;10.50;;;9.07;;
7181;SDS011;3632;42.724;23.298;2022-08-19T06:06:18;11.57;;;9.00;;
7181;SDS011;3632;42.724;23.298;2022-08-19T06:08:45;9.33;;;8.00;;
7181;SDS011;3632;42.724;23.298;2022-08-19T06:11:17;11.47;;;7.57;;
7181;SDS011;3632;42.724;23.298;2022-08-19T06:13:46;8.63;;;6.67;;
7181;SDS011;3632;42.724;23.298;2022-08-19T06:16:17;8.10;;;7.27;;
7181;SDS011;3632;42.724;23.298;2022-08-19T06:18:47;9.00;;;8.13;;
7181;SDS011;3632;42.724;23.298;2022-08-19T06:21:16;9.33;;;7.10;;
7181;SDS011;3632;42.724;23.298;2022-08-19T06:23:43;8.20;;;7.40;;
7181;SDS011;3632;42.724;23.298;2022-08-19T06:26:12;9.87;;;6.63;;
7181;SDS011;3632;42.724;23.298;2022-08-19T06:28:41;8.10;;;7.30;;
7181;SDS011;3632;42.724;23.298;2022-08-19T06:31:11;13.03;;;7.60;;
7181;SDS011;3632;42.724;23.298;2022-08-19T06:33:39;10.37;;;7.80;;
7181;SDS011;3632;42.724;23.298;2022-08-19T06:36:07;8.07;;;7.23;;
7181;SDS011;3632;42.724;23.298;2022-08-19T06:38:41;11.70;;;8.00;;
7181;SDS011;3632;42.724;23.298;2022-08-19T06:41:08;8.27;;;7.27;;
7181;SDS011;3632;42.724;23.298;2022-08-19T06:43:35;13.33;;;7.47;;
7181;SDS011;3632;42.724;23.298;2022-08-19T06:46:04;13.00;;;7.27;;
7181;SDS011;3632;42.724;23.298;2022-08-19T06:48:36;11.10;;;8.63;;
7181;SDS011;3632;42.724;23.298;2022-08-19T06:51:03;8.87;;;8.03;;
7181;SDS011;3632;42.724;23.298;2022-08-19T06:53:30;7.63;;;6.93;;
7181;SDS011;3632;42.724;23.298;2022-08-19T06:55:57;12.17;;;7.23;;
7181;SDS011;3632;42.724;23.298;2022-08-19T06:58:27;9.07;;;7.60;;
7181;SDS011;3632;42.724;23.298;2022-08-19T07:00:57;8.47;;;7.10;;
7181;SDS011;3632;42.724;23.298;2022-08-19T07:03:28;10.60;;;6.77;;
7181;SDS011;3632;42.724;23.298;2022-08-19T07:05:57;8.93;;;7.77;;
7181;SDS011;3632;42.724;23.298;2022-08-19T07:08:24;9.73;;;8.03;;
7181;SDS011;3632;42.724;23.298;2022-08-19T07:10:52;11.53;;;7.50;;
7181;SDS011;3632;42.724;23.298;2022-08-19T07:13:19;11.80;;;7.33;;
7181;SDS011;3632;42.724;23.298;2022-08-19T07:15:47;13.80;;;7.50;;
7181;SDS011;3632;42.724;23.298;2022-08-19T07:18:15;14.70;;;7.07;;
7181;SDS011;3632;42.724;23.298;2022-08-19T07:20:44;13.97;;;7.80;;
7181;SDS011;3632;42.724;23.298;2022-08-19T07:23:10;14.27;;;7.23;;
7181;SDS011;3632;42.724;23.298;2022-08-19T07:25:37;9.27;;;7.53;;
7181;SDS011;3632;42.724;23.298;2022-08-19T07:28:04;11.73;;;8.77;;
7181;SDS011;3632;42.724;23.298;2022-08-19T07:30:32;19.43;;;10.17;;
7181;SDS011;3632;42.724;23.298;2022-08-19T07:33:02;12.47;;;10.80;;
7181;SDS011;3632;42.724;23.298;2022-08-19T07:35:28;16.07;;;9.33;;
7181;SDS011;3632;42.724;23.298;2022-08-19T07:37:58;15.30;;;10.33;;
7181;SDS011;3632;42.724;23.298;2022-08-19T07:40:28;13.63;;;10.83;;
7181;SDS011;3632;42.724;23.298;2022-08-19T07:42:55;11.53;;;8.50;;
7181;SDS011;3632;42.724;23.298;2022-08-19T07:45:21;11.57;;;7.63;;
7181;SDS011;3632;42.724;23.298;2022-08-19T07:47:48;14.07;;;8.17;;
7181;SDS011;3632;42.724;23.298;2022-08-19T07:50:16;19.83;;;7.93;;
7181;SDS011;3632;42.724;23.298;2022-08-19T07:52:44;16.00;;;7.50;;
7181;SDS011;3632;42.724;23.298;2022-08-19T07:55:12;10.17;;;7.70;;
7181;SDS011;3632;42.724;23.298;2022-08-19T07:57:39;14.53;;;8.30;;
7181;SDS011;3632;42.724;23.298;2022-08-19T08:00:07;12.77;;;8.53;;
7181;SDS011;3632;42.724;23.298;2022-08-19T08:02:34;14.37;;;10.60;;
7181;SDS011;3632;42.724;23.298;2022-08-19T08:05:02;14.33;;;8.90;;
7181;SDS011;3632;42.724;23.298;2022-08-19T08:07:46;9.57;;;7.33;;
7181;SDS011;3632;42.724;23.298;2022-08-19T08:10:32;13.80;;;6.87;;
7181;SDS011;3632;42.724;23.298;2022-08-19T08:12:59;10.50;;;6.70;;
7181;SDS011;3632;42.724;23.298;2022-08-19T08:15:26;11.00;;;9.63;;
7181;SDS011;3632;42.724;23.298;2022-08-19T08:17:52;7.47;;;6.30;;
7181;SDS011;3632;42.724;23.298;2022-08-19T08:20:19;8.10;;;6.03;;
7181;SDS011;3632;42.724;23.298;2022-08-19T08:22:46;8.53;;;6.10;;
7181;SDS011;3632;42.724;23.298;2022-08-19T08:25:33;9.67;;;5.93;;
7181;SDS011;3632;42.724;23.298;2022-08-19T08:28:02;11.47;;;5.50;;
7181;SDS011;3632;42.724;23.298;2022-08-19T08:30:29;10.73;;;6.57;;
7181;SDS011;3632;42.724;23.298;2022-08-19T08:33:00;6.17;;;5.50;;
7181;SDS011;3632;42.724;23.298;2022-08-19T08:35:27;6.90;;;5.80;;
7181;SDS011;3632;42.724;23.298;2022-08-19T08:37:55;7.87;;;5.47;;
7181;SDS011;3632;42.724;23.298;2022-08-19T08:40:23;10.30;;;5.70;;
7181;SDS011;3632;42.724;23.298;2022-08-19T08:42:57;9.40;;;5.63;;
7181;SDS011;3632;42.724;23.298;2022-08-19T08:45:30;12.27;;;6.00;;
7181;SDS011;3632;42.724;23.298;2022-08-19T08:48:00;8.17;;;5.70;;
7181;SDS011;3632;42.724;23.298;2022-08-19T08:50:32;12.27;;;6.47;;
7181;SDS011;3632;42.724;23.298;2022-08-19T08:53:04;7.30;;;6.20;;
7181;SDS011;3632;42.724;23.298;2022-08-19T08:55:32;9.83;;;5.77;;
7181;SDS011;3632;42.724;23.298;2022-08-19T08:58:03;13.00;;;6.50;;
7181;SDS011;3632;42.724;23.298;2022-08-19T09:00:33;9.90;;;5.95;;
7181;SDS011;3632;42.724;23.298;2022-08-19T09:03:03;7.80;;;5.77;;
7181;SDS011;3632;42.724;23.298;2022-08-19T09:05:37;6.90;;;6.00;;
7181;SDS011;3632;42.724;23.298;2022-08-19T09:08:13;8.20;;;5.60;;
7181;SDS011;3632;42.724;23.298;2022-08-19T09:10:49;13.73;;;10.77;;
7181;SDS011;3632;42.724;23.298;2022-08-19T09:13:22;12.63;;;8.88;;
7181;SDS011;3632;42.724;23.298;2022-08-19T09:15:56;8.17;;;5.00;;
7181;SDS011;3632;42.724;23.298;2022-08-19T09:18:32;7.28;;;5.53;;
7181;SDS011;3632;42.724;23.298;2022-08-19T09:21:06;5.95;;;5.03;;
7181;SDS011;3632;42.724;23.298;2022-08-19T09:23:33;5.32;;;4.40;;
7181;SDS011;3632;42.724;23.298;2022-08-19T09:26:00;7.47;;;4.20;;
7181;SDS011;3632;42.724;23.298;2022-08-19T09:28:29;5.55;;;4.15;;
7181;SDS011;3632;42.724;23.298;2022-08-19T09:30:56;9.18;;;7.15;;
7181;SDS011;3632;42.724;23.298;2022-08-19T09:33:23;10.13;;;7.75;;
7181;SDS011;3632;42.724;23.298;2022-08-19T09:35:49;8.60;;;6.03;;
7181;SDS011;3632;42.724;23.298;2022-08-19T09:38:16;5.97;;;4.05;;
7181;SDS011;3632;42.724;23.298;2022-08-19T09:40:43;4.57;;;3.50;;
7181;SDS011;3632;42.724;23.298;2022-08-19T09:43:10;3.88;;;3.40;;
7181;SDS011;3632;42.724;23.298;2022-08-19T09:45:38;4.70;;;3.70;;
7181;SDS011;3632;42.724;23.298;2022-08-19T09:48:04;4.57;;;4.20;;
7181;SDS011;3632;42.724;23.298;2022-08-19T09:50:31;4.38;;;3.83;;
7181;SDS011;3632;42.724;23.298;2022-08-19T09:53:00;4.15;;;3.80;;
7181;SDS011;3632;42.724;23.298;2022-08-19T09:55:26;4.22;;;3.70;;
7181;SDS011;3632;42.724;23.298;2022-08-19T09:57:53;6.88;;;3.88;;
7181;SDS011;3632;42.724;23.298;2022-08-19T10:00:20;4.80;;;3.70;;
7181;SDS011;3632;42.724;23.298;2022-08-19T10:02:48;3.97;;;3.67;;
7181;SDS011;3632;42.724;23.298;2022-08-19T10:05:15;6.15;;;3.67;;
7181;SDS011;3632;42.724;23.298;2022-08-19T10:08:11;4.88;;;3.50;;
7181;SDS011;3632;42.724;23.298;2022-08-19T10:10:38;3.85;;;3.50;;
7181;SDS011;3632;42.724;23.298;2022-08-19T10:13:05;5.18;;;3.97;;
7181;SDS011;3632;42.724;23.298;2022-08-19T10:15:31;5.10;;;3.50;;
7181;SDS011;3632;42.724;23.298;2022-08-19T10:18:02;5.28;;;3.67;;
7181;SDS011;3632;42.724;23.298;2022-08-19T10:20:28;4.55;;;3.80;;
7181;SDS011;3632;42.724;23.298;2022-08-19T10:22:55;7.15;;;6.20;;
7181;SDS011;3632;42.724;23.298;2022-08-19T10:25:24;4.35;;;3.95;;
7181;SDS011;3632;42.724;23.298;2022-08-19T10:27:51;7.43;;;5.53;;
7181;SDS011;3632;42.724;23.298;2022-08-19T10:30:18;6.90;;;6.20;;
7181;SDS011;3632;42.724;23.298;2022-08-19T10:32:45;7.40;;;5.13;;
7181;SDS011;3632;42.724;23.298;2022-08-19T10:35:14;8.65;;;4.07;;
7181;SDS011;3632;42.724;23.298;2022-08-19T10:37:40;8.90;;;4.00;;
7181;SDS011;3632;42.724;23.298;2022-08-19T10:40:08;5.75;;;3.95;;
7181;SDS011;3632;42.724;23.298;2022-08-19T10:42:36;4.68;;;3.80;;
7181;SDS011;3632;42.724;23.298;2022-08-19T10:45:04;5.53;;;4.07;;
7181;SDS011;3632;42.724;23.298;2022-08-19T10:47:32;5.10;;;4.00;;
7181;SDS011;3632;42.724;23.298;2022-08-19T10:49:59;5.18;;;4.05;;
7181;SDS011;3632;42.724;23.298;2022-08-19T10:52:45;5.70;;;4.10;;
7181;SDS011;3632;42.724;23.298;2022-08-19T10:55:14;4.90;;;4.13;;
7181;SDS011;3632;42.724;23.298;2022-08-19T10:57:58;5.57;;;3.97;;
7181;SDS011;3632;42.724;23.298;2022-08-19T11:00:24;4.30;;;3.90;;
7181;SDS011;3632;42.724;23.298;2022-08-19T11:02:51;5.10;;;3.47;;
7181;SDS011;3632;42.724;23.298;2022-08-19T11:05:19;5.55;;;3.88;;
7181;SDS011;3632;42.724;23.298;2022-08-19T11:07:48;6.00;;;4.07;;
7181;SDS011;3632;42.724;23.298;2022-08-19T11:10:15;7.35;;;4.20;;
7181;SDS011;3632;42.724;23.298;2022-08-19T11:12:44;6.35;;;4.00;;
7181;SDS011;3632;42.724;23.298;2022-08-19T11:15:12;9.77;;;4.32;;
7181;SDS011;3632;42.724;23.298;2022-08-19T11:17:39;4.40;;;4.00;;
7181;SDS011;3632;42.724;23.298;2022-08-19T11:20:08;5.97;;;4.32;;
7181;SDS011;3632;42.724;23.298;2022-08-19T11:22:37;10.00;;;7.50;;
7181;SDS011;3632;42.724;23.298;2022-08-19T11:25:07;8.55;;;4.65;;
7181;SDS011;3632;42.724;23.298;2022-08-19T11:27:36;8.55;;;6.85;;
7181;SDS011;3632;42.724;23.298;2022-08-19T11:30:05;5.57;;;5.07;;
7181;SDS011;3632;42.724;23.298;2022-08-19T11:32:32;5.70;;;4.35;;
7181;SDS011;3632;42.724;23.298;2022-08-19T11:35:00;8.38;;;7.57;;
7181;SDS011;3632;42.724;23.298;2022-08-19T11:37:26;5.65;;;4.80;;
7181;SDS011;3632;42.724;23.298;2022-08-19T11:39:53;4.45;;;4.00;;
7181;SDS011;3632;42.724;23.298;2022-08-19T11:42:21;4.28;;;3.88;;
7181;SDS011;3632;42.724;23.298;2022-08-19T11:45:06;5.60;;;4.20;;
7181;SDS011;3632;42.724;23.298;2022-08-19T11:47:35;5.78;;;4.63;;
7181;SDS011;3632;42.724;23.298;2022-08-19T11:50:04;6.90;;;5.03;;
7181;SDS011;3632;42.724;23.298;2022-08-19T11:52:31;5.70;;;3.97;;
7181;SDS011;3632;42.724;23.298;2022-08-19T11:54:58;5.68;;;3.83;;
7181;SDS011;3632;42.724;23.298;2022-08-19T11:57:26;9.23;;;7.43;;
7181;SDS011;3632;42.724;23.298;2022-08-19T11:59:54;8.95;;;4.75;;
7181;SDS011;3632;42.724;23.298;2022-08-19T12:02:21;5.20;;;4.70;;
7181;SDS011;3632;42.724;23.298;2022-08-19T12:04:48;6.60;;;3.95;;
7181;SDS011;3632;42.724;23.298;2022-08-19T12:07:15;4.22;;;3.83;;
7181;SDS011;3632;42.724;23.298;2022-08-19T12:09:42;4.50;;;4.00;;
7181;SDS011;3632;42.724;23.298;2022-08-19T12:12:09;4.40;;;4.00;;
7181;SDS011;3632;42.724;23.298;2022-08-19T12:14:37;6.10;;;4.18;;
7181;SDS011;3632;42.724;23.298;2022-08-19T12:17:04;5.70;;;4.10;;
7181;SDS011;3632;42.724;23.298;2022-08-19T12:19:32;4.95;;;4.45;;
7181;SDS011;3632;42.724;23.298;2022-08-19T12:21:59;5.88;;;5.35;;
7181;SDS011;3632;42.724;23.298;2022-08-19T12:24:29;8.55;;;6.32;;
7181;SDS011;3632;42.724;23.298;2022-08-19T12:26:57;6.95;;;6.25;;
7181;SDS011;3632;42.724;23.298;2022-08-19T12:29:26;5.45;;;4.85;;
7181;SDS011;3632;42.724;23.298;2022-08-19T12:31:55;6.80;;;6.10;;
7181;SDS011;3632;42.724;23.298;2022-08-19T12:34:25;7.40;;;5.40;;
7181;SDS011;3632;42.724;23.298;2022-08-19T12:36:55;13.75;;;5.97;;
7181;SDS011;3632;42.724;23.298;2022-08-19T12:39:22;5.13;;;4.47;;
7181;SDS011;3632;42.724;23.298;2022-08-19T12:41:49;7.57;;;4.97;;
7181;SDS011;3632;42.724;23.298;2022-08-19T12:44:16;7.25;;;4.80;;
7181;SDS011;3632;42.724;23.298;2022-08-19T12:46:43;5.25;;;4.45;;
7181;SDS011;3632;42.724;23.298;2022-08-19T12:49:11;7.25;;;4.80;;
7181;SDS011;3632;42.724;23.298;2022-08-19T12:51:37;4.30;;;3.90;;
7181;SDS011;3632;42.724;23.298;2022-08-19T12:54:04;6.03;;;4.50;;
7181;SDS011;3632;42.724;23.298;2022-08-19T12:56:31;7.18;;;4.55;;
7181;SDS011;3632;42.724;23.298;2022-08-19T12:59:00;11.48;;;10.02;;
7181;SDS011;3632;42.724;23.298;2022-08-19T13:01:27;6.40;;;5.60;;
7181;SDS011;3632;42.724;23.298;2022-08-19T13:03:57;6.65;;;5.38;;
7181;SDS011;3632;42.724;23.298;2022-08-19T13:06:26;7.78;;;5.47;;
7181;SDS011;3632;42.724;23.298;2022-08-19T13:08:53;11.00;;;10.00;;
7181;SDS011;3632;42.724;23.298;2022-08-19T13:11:21;8.18;;;5.05;;
7181;SDS011;3632;42.724;23.298;2022-08-19T13:13:49;7.47;;;4.90;;
7181;SDS011;3632;42.724;23.298;2022-08-19T13:16:20;8.75;;;5.40;;
7181;SDS011;3632;42.724;23.298;2022-08-19T13:18:47;5.25;;;3.97;;
7181;SDS011;3632;42.724;23.298;2022-08-19T13:21:17;5.25;;;4.35;;
7181;SDS011;3632;42.724;23.298;2022-08-19T13:23:47;6.60;;;5.03;;
7181;SDS011;3632;42.724;23.298;2022-08-19T13:26:14;4.90;;;4.10;;
7181;SDS011;3632;42.724;23.298;2022-08-19T13:28:42;7.03;;;4.38;;
7181;SDS011;3632;42.724;23.298;2022-08-19T13:31:28;7.47;;;6.78;;
7181;SDS011;3632;42.724;23.298;2022-08-19T13:34:16;8.48;;;4.78;;
7181;SDS011;3632;42.724;23.298;2022-08-19T13:36:44;4.90;;;4.40;;
7181;SDS011;3632;42.724;23.298;2022-08-19T13:39:12;6.00;;;4.97;;
7181;SDS011;3632;42.724;23.298;2022-08-19T13:41:42;7.10;;;5.00;;
7181;SDS011;3632;42.724;23.298;2022-08-19T13:44:13;12.00;;;7.30;;
7181;SDS011;3632;42.724;23.298;2022-08-19T13:46:40;15.05;;;13.52;;
7181;SDS011;3632;42.724;23.298;2022-08-19T13:49:10;8.32;;;6.38;;
7181;SDS011;3632;42.724;23.298;2022-08-19T13:51:37;7.65;;;4.95;;
7181;SDS011;3632;42.724;23.298;2022-08-19T13:54:04;5.50;;;4.20;;
7181;SDS011;3632;42.724;23.298;2022-08-19T13:56:32;8.05;;;4.78;;
7181;SDS011;3632;42.724;23.298;2022-08-19T13:58:59;8.38;;;5.60;;
7181;SDS011;3632;42.724;23.298;2022-08-19T14:01:26;7.57;;;5.90;;
7181;SDS011;3632;42.724;23.298;2022-08-19T14:03:53;7.70;;;6.80;;
7181;SDS011;3632;42.724;23.298;2022-08-19T14:06:20;5.55;;;4.43;;
7181;SDS011;3632;42.724;23.298;2022-08-19T14:08:47;8.80;;;6.40;;
7181;SDS011;3632;42.724;23.298;2022-08-19T14:11:15;6.70;;;5.15;;
7181;SDS011;3632;42.724;23.298;2022-08-19T14:13:43;5.63;;;5.20;;
7181;SDS011;3632;42.724;23.298;2022-08-19T14:16:10;9.07;;;6.53;;
7181;SDS011;3632;42.724;23.298;2022-08-19T14:18:39;5.97;;;5.30;;
7181;SDS011;3632;42.724;23.298;2022-08-19T14:21:06;6.82;;;5.30;;
7181;SDS011;3632;42.724;23.298;2022-08-19T14:23:33;10.63;;;6.60;;
7181;SDS011;3632;42.724;23.298;2022-08-19T14:26:04;6.85;;;6.03;;
7181;SDS011;3632;42.724;23.298;2022-08-19T14:28:34;5.57;;;5.07;;
7181;SDS011;3632;42.724;23.298;2022-08-19T14:31:02;5.78;;;5.00;;
7181;SDS011;3632;42.724;23.298;2022-08-19T14:33:29;10.48;;;4.70;;
7181;SDS011;3632;42.724;23.298;2022-08-19T14:35:57;4.68;;;4.22;;
7181;SDS011;3632;42.724;23.298;2022-08-19T14:38:25;5.85;;;5.20;;
7181;SDS011;3632;42.724;23.298;2022-08-19T14:40:52;6.28;;;5.65;;
7181;SDS011;3632;42.724;23.298;2022-08-19T14:43:19;8.13;;;4.80;;
7181;SDS011;3632;42.724;23.298;2022-08-19T14:45:47;6.32;;;5.55;;
7181;SDS011;3632;42.724;23.298;2022-08-19T14:48:15;6.65;;;5.00;;
7181;SDS011;3632;42.724;23.298;2022-08-19T14:50:42;7.65;;;4.82;;
7181;SDS011;3632;42.724;23.298;2022-08-19T14:53:09;10.48;;;6.20;;
7181;SDS011;3632;42.724;23.298;2022-08-19T14:55:36;7.07;;;6.38;;
7181;SDS011;3632;42.724;23.298;2022-08-19T14:58:07;11.15;;;4.90;;
7181;SDS011;3632;42.724;23.298;2022-08-19T15:00:34;5.97;;;4.50;;
7181;SDS011;3632;42.724;23.298;2022-08-19T15:03:01;7.30;;;4.68;;
7181;SDS011;3632;42.724;23.298;2022-08-19T15:05:29;5.28;;;4.57;;
7181;SDS011;3632;42.724;23.298;2022-08-19T15:07:57;6.40;;;5.30;;